Time;durP1;ratioP1;P1;durP2;ratioP2;P2;SDS_P1;SDS_P2;PMS_P1;PMS_P2;Temp;Humidity;BMP_temperature;BMP_pressure;BME280_temperature;BME280_humidity;BME280_pressure;Samples;Min_cycle;Max_cycle;Signal;HPM_P1;HPM_P2
2022/10/05 00:01:24;;;;;;;10.10;5.20;;;13.00;99.90;;;;;;5057310;28;20451;-81
2022/10/05 00:03:52;;;;;;;9.23;4.47;;;12.90;99.90;;;;;;5053698;28;20463;-82
2022/10/05 00:06:19;;;;;;;6.20;3.80;;;13.00;99.90;;;;;;5037315;28;20452;-82
2022/10/05 00:08:46;;;;;;;7.07;4.37;;;13.00;99.90;;;;;;5036845;28;20492;-81
2022/10/05 00:11:14;;;;;;;8.17;4.57;;;12.90;99.90;;;;;;5057981;28;20455;-83
2022/10/05 00:13:41;;;;;;;4.57;3.70;;;13.00;99.90;;;;;;5061298;28;20530;-80
2022/10/05 00:16:16;;;;;;;5.43;3.83;;;13.00;99.90;;;;;;5043481;28;20460;-81
2022/10/05 00:18:46;;;;;;;7.07;4.13;;;13.00;99.90;;;;;;5057646;28;20542;-84
2022/10/05 00:21:20;;;;;;;8.47;4.73;;;13.00;99.90;;;;;;5037141;28;20458;-82
2022/10/05 00:23:48;;;;;;;6.70;5.07;;;13.00;99.90;;;;;;5037771;28;20818;-81
2022/10/05 00:26:19;;;;;;;7.00;4.90;;;13.10;99.90;;;;;;5037327;28;20544;-81
2022/10/05 00:28:46;;;;;;;4.73;4.23;;;13.10;99.90;;;;;;5048156;28;20475;-80
2022/10/05 00:31:18;;;;;;;10.57;5.10;;;13.10;99.90;;;;;;5058696;28;20458;-81
2022/10/05 00:33:45;;;;;;;5.40;4.10;;;13.00;99.90;;;;;;5056507;28;20453;-81
2022/10/05 00:36:13;;;;;;;5.87;4.10;;;13.10;99.90;;;;;;5057576;28;20829;-80
2022/10/05 00:38:40;;;;;;;5.83;4.80;;;13.00;99.90;;;;;;5056171;28;20818;-81
2022/10/05 00:41:12;;;;;;;12.97;6.77;;;13.00;99.90;;;;;;5056216;28;20455;-81
2022/10/05 00:44:01;;;;;;;7.70;4.77;;;13.10;99.90;;;;;;5050005;28;20458;-82
2022/10/05 00:46:40;;;;;;;6.70;4.27;;;13.10;99.90;;;;;;5037608;28;20464;-83
2022/10/05 00:49:21;;;;;;;8.97;4.87;;;13.10;99.90;;;;;;5048004;28;20491;-80
2022/10/05 00:51:59;;;;;;;7.77;5.10;;;13.20;99.90;;;;;;5057590;28;20454;-79
2022/10/05 00:54:33;;;;;;;10.40;5.10;;;13.20;99.90;;;;;;5050763;28;20455;-81
2022/10/05 00:57:19;;;;;;;5.50;4.60;;;13.20;99.90;;;;;;5039679;28;20435;-83
2022/10/05 00:59:58;;;;;;;7.10;4.97;;;13.30;99.90;;;;;;5039465;28;20473;-81
2022/10/05 01:02:33;;;;;;;7.80;4.97;;;13.30;99.90;;;;;;5045935;28;20955;-80
2022/10/05 01:05:09;;;;;;;6.10;4.53;;;13.30;99.90;;;;;;5059697;28;20465;-81
2022/10/05 01:07:43;;;;;;;7.50;5.03;;;13.30;99.90;;;;;;5051260;28;20469;-81
2022/10/05 01:10:18;;;;;;;6.00;5.40;;;13.30;99.90;;;;;;5039872;28;20844;-80
2022/10/05 01:12:53;;;;;;;7.17;5.17;;;13.30;99.90;;;;;;5053619;28;20444;-82
2022/10/05 01:15:28;;;;;;;6.00;4.50;;;13.40;99.90;;;;;;5062720;28;20965;-82
2022/10/05 01:18:03;;;;;;;6.37;4.63;;;13.40;99.90;;;;;;5046598;28;20550;-82
2022/10/05 01:20:38;;;;;;;6.10;4.80;;;13.40;99.90;;;;;;5045081;28;20464;-81
2022/10/05 01:23:29;;;;;;;8.20;4.70;;;13.50;99.90;;;;;;5064728;28;20490;-82
2022/10/05 01:26:08;;;;;;;6.10;4.47;;;13.40;99.90;;;;;;5067246;28;20455;-82
2022/10/05 01:28:41;;;;;;;6.47;4.57;;;13.50;99.90;;;;;;5067645;28;20438;-83
2022/10/05 01:31:16;;;;;;;6.83;4.77;;;13.40;99.90;;;;;;5063922;28;20452;-83
2022/10/05 01:33:48;;;;;;;6.83;4.63;;;13.40;99.90;;;;;;5048122;28;20550;-84
2022/10/05 01:36:22;;;;;;;5.27;4.43;;;13.50;99.90;;;;;;5048358;28;20461;-82
2022/10/05 01:38:56;;;;;;;7.20;4.77;;;13.50;99.90;;;;;;5066930;28;20483;-83
2022/10/05 01:41:32;;;;;;;8.70;5.37;;;13.40;99.90;;;;;;5066041;28;20455;-84
2022/10/05 01:44:04;;;;;;;6.90;4.93;;;13.40;99.90;;;;;;5068550;28;20454;-83
2022/10/05 01:46:37;;;;;;;10.53;4.60;;;13.40;99.90;;;;;;5050020;28;20959;-83
2022/10/05 01:49:20;;;;;;;5.87;4.70;;;13.40;99.90;;;;;;5047677;28;20498;-84
2022/10/05 01:51:56;;;;;;;5.50;4.17;;;13.50;99.90;;;;;;5066570;28;20464;-84
2022/10/05 01:54:32;;;;;;;7.87;5.70;;;13.50;99.90;;;;;;5065465;28;20450;-84
2022/10/05 01:57:08;;;;;;;7.87;4.93;;;13.50;99.90;;;;;;5066920;28;20445;-83
2022/10/05 01:59:53;;;;;;;6.50;4.83;;;13.50;99.90;;;;;;5049176;28;20474;-83
2022/10/05 02:02:23;;;;;;;8.53;5.17;;;13.50;99.90;;;;;;5046896;28;20952;-82
2022/10/05 02:04:54;;;;;;;10.77;5.60;;;13.50;99.90;;;;;;5066686;28;20464;-84
2022/10/05 02:07:23;;;;;;;7.60;4.87;;;13.50;99.90;;;;;;5049670;28;20481;-85
2022/10/05 02:09:54;;;;;;;7.00;5.63;;;13.50;99.90;;;;;;5045071;28;20599;-83
2022/10/05 02:12:25;;;;;;;6.77;5.57;;;13.40;99.90;;;;;;5044814;28;20462;-83
2022/10/05 02:15:00;;;;;;;6.10;4.87;;;13.50;99.90;;;;;;5054785;28;20457;-82
2022/10/05 02:17:35;;;;;;;6.30;4.73;;;13.60;99.90;;;;;;5064824;28;20530;-83
2022/10/05 02:20:05;;;;;;;8.20;5.40;;;13.50;99.90;;;;;;5052403;28;20478;-84
2022/10/05 02:22:36;;;;;;;9.17;5.30;;;13.50;99.90;;;;;;5045460;28;20542;-81
2022/10/05 02:25:07;;;;;;;7.70;4.47;;;13.60;99.90;;;;;;5052567;28;20464;-82
2022/10/05 02:27:47;;;;;;;6.87;5.17;;;13.60;99.90;;;;;;5062077;28;20451;-83
2022/10/05 02:30:17;;;;;;;6.17;4.93;;;13.60;99.90;;;;;;5052262;28;20518;-83
2022/10/05 02:32:51;;;;;;;5.93;4.80;;;13.60;99.90;;;;;;5059595;28;20453;-84
2022/10/05 02:35:19;;;;;;;7.63;4.93;;;13.60;99.90;;;;;;5064004;28;20539;-84
2022/10/05 02:38:03;;;;;;;9.30;5.50;;;13.60;99.90;;;;;;5064858;28;20827;-84
2022/10/05 02:40:39;;;;;;;5.07;4.57;;;13.60;99.90;;;;;;5074903;22;21038;-83
2022/10/05 02:43:19;;;;;;;5.80;4.33;;;13.60;99.90;;;;;;5063767;28;20492;-83
2022/10/05 02:45:56;;;;;;;7.70;4.93;;;13.60;99.90;;;;;;5063939;28;20443;-85
2022/10/05 02:48:34;;;;;;;6.83;4.77;;;13.60;99.90;;;;;;5061172;28;20489;-83
2022/10/05 02:51:08;;;;;;;6.23;4.83;;;13.60;99.90;;;;;;5059691;28;20501;-84
2022/10/05 02:53:43;;;;;;;6.20;4.47;;;13.60;99.90;;;;;;5060444;28;20473;-83
2022/10/05 02:56:22;;;;;;;5.57;4.87;;;13.60;99.90;;;;;;5060642;28;20455;-83
2022/10/05 02:58:59;;;;;;;6.70;5.20;;;13.60;99.90;;;;;;5055148;28;20469;-83
2022/10/05 03:01:34;;;;;;;7.57;4.73;;;13.60;99.90;;;;;;5061448;28;20479;-84
2022/10/05 03:04:11;;;;;;;7.40;5.53;;;13.60;99.90;;;;;;5062122;28;20478;-84
2022/10/05 03:06:55;;;;;;;5.97;5.30;;;13.60;99.90;;;;;;5062180;28;20455;-84
2022/10/05 03:09:27;;;;;;;7.17;4.70;;;13.60;99.90;;;;;;5058351;28;20489;-83
2022/10/05 03:12:08;;;;;;;8.40;5.33;;;13.60;99.90;;;;;;5060885;28;20469;-83
2022/10/05 03:14:45;;;;;;;7.60;5.47;;;13.50;99.90;;;;;;5040941;28;20444;-83
2022/10/05 03:17:17;;;;;;;8.03;5.27;;;13.50;99.90;;;;;;5046141;28;20459;-85
2022/10/05 03:19:57;;;;;;;5.87;4.73;;;13.50;99.90;;;;;;5061706;28;20455;-84
2022/10/05 03:22:37;;;;;;;6.20;4.63;;;13.50;99.90;;;;;;5062109;28;20455;-84
2022/10/05 03:25:25;;;;;;;8.60;5.27;;;13.50;99.90;;;;;;5064752;28;20515;-85
2022/10/05 03:27:57;;;;;;;5.93;5.30;;;13.40;99.90;;;;;;5061340;28;20543;-82
2022/10/05 03:30:25;;;;;;;6.20;5.30;;;13.40;99.90;;;;;;5060666;28;20496;-83
2022/10/05 03:33:01;;;;;;;5.97;4.30;;;13.40;99.90;;;;;;5056086;28;20475;-83
2022/10/05 03:35:32;;;;;;;7.07;5.33;;;13.40;99.90;;;;;;5060181;28;20455;-83
2022/10/05 03:38:08;;;;;;;6.60;4.80;;;13.50;99.90;;;;;;5059430;28;20469;-83
2022/10/05 03:40:43;;;;;;;8.93;5.57;;;13.50;99.90;;;;;;5062861;28;20573;-85
2022/10/05 03:43:39;;;;;;;6.00;4.63;;;13.50;99.90;;;;;;5060469;28;20537;-84
2022/10/05 03:46:12;;;;;;;7.73;5.30;;;13.50;99.90;;;;;;5056143;28;20550;-81
2022/10/05 03:48:49;;;;;;;7.83;5.50;;;13.50;99.90;;;;;;5059664;28;20871;-82
2022/10/05 03:51:24;;;;;;;7.73;5.63;;;13.50;99.90;;;;;;5059514;28;20498;-83
2022/10/05 03:53:56;;;;;;;6.50;5.80;;;13.50;99.90;;;;;;5061283;28;20486;-84
2022/10/05 03:56:32;;;;;;;5.77;5.17;;;13.50;99.90;;;;;;5062150;28;20527;-84
2022/10/05 03:59:03;;;;;;;8.77;5.10;;;13.40;99.90;;;;;;5054032;28;20540;-84
2022/10/05 04:01:41;;;;;;;7.47;5.67;;;13.40;99.90;;;;;;5061552;28;20476;-84
2022/10/05 04:04:16;;;;;;;9.53;6.07;;;13.40;99.90;;;;;;5058416;28;20557;-85
2022/10/05 04:06:47;;;;;;;7.90;5.60;;;13.30;99.90;;;;;;5061119;28;20482;-84
2022/10/05 04:09:18;;;;;;;9.30;5.80;;;13.30;99.90;;;;;;5064053;28;20877;-84
2022/10/05 04:11:50;;;;;;;7.10;5.53;;;13.30;99.90;;;;;;5060279;28;20466;-85
2022/10/05 04:14:21;;;;;;;6.60;5.07;;;13.30;99.90;;;;;;5062542;28;20462;-81
2022/10/05 04:16:54;;;;;;;8.33;6.23;;;13.30;99.90;;;;;;5057927;28;20459;-83
2022/10/05 04:19:27;;;;;;;6.23;5.17;;;13.30;99.90;;;;;;5064121;28;20442;-82
2022/10/05 04:22:00;;;;;;;7.00;6.30;;;13.30;99.90;;;;;;5063147;28;20561;-83
2022/10/05 04:24:34;;;;;;;8.70;6.23;;;13.20;99.90;;;;;;5070166;28;20459;-81
2022/10/05 04:27:07;;;;;;;9.17;5.50;;;13.20;99.90;;;;;;5070992;28;21011;-84
2022/10/05 04:29:40;;;;;;;7.77;5.27;;;13.20;99.90;;;;;;5071572;28;20454;-84
2022/10/05 04:32:26;;;;;;;9.17;5.80;;;13.30;99.90;;;;;;5071966;28;20542;-79
2022/10/05 04:35:23;;;;;;;8.77;5.70;;;13.40;99.90;;;;;;5067729;28;20664;-81
2022/10/05 04:37:59;;;;;;;7.57;5.17;;;13.30;99.90;;;;;;5066868;28;20463;-81
2022/10/05 04:40:40;;;;;;;8.60;5.73;;;13.40;99.90;;;;;;5066539;28;21004;-83
2022/10/05 04:43:12;;;;;;;7.60;5.83;;;13.30;99.90;;;;;;5066802;28;20543;-81
2022/10/05 04:45:54;;;;;;;9.63;4.67;;;13.30;99.90;;;;;;5060820;28;20515;-81
2022/10/05 04:48:35;;;;;;;10.10;5.70;;;13.30;99.90;;;;;;5066561;28;22389;-82
2022/10/05 04:51:15;;;;;;;6.80;5.10;;;13.20;99.90;;;;;;5063823;28;20566;-84
2022/10/05 04:53:51;;;;;;;9.67;5.67;;;13.30;99.90;;;;;;5061277;28;20478;-82
2022/10/05 04:56:24;;;;;;;6.40;5.27;;;13.30;99.90;;;;;;5060921;28;20452;-84
2022/10/05 04:59:10;;;;;;;8.57;5.93;;;13.40;99.90;;;;;;5061589;28;20548;-83
2022/10/05 05:01:50;;;;;;;6.83;6.13;;;13.30;99.90;;;;;;5060736;28;20474;-83
2022/10/05 05:04:34;;;;;;;5.93;5.17;;;13.40;99.90;;;;;;5061109;28;20544;-84
2022/10/05 05:07:13;;;;;;;8.60;5.33;;;13.50;99.90;;;;;;5061545;28;20451;-84
2022/10/05 05:10:15;;;;;;;11.43;5.80;;;13.60;99.90;;;;;;5062416;28;20538;-84
2022/10/05 05:12:56;;;;;;;6.37;5.73;;;13.60;99.90;;;;;;5063137;28;20915;-84
2022/10/05 05:15:37;;;;;;;9.20;5.70;;;13.60;99.90;;;;;;5060299;28;20468;-85
2022/10/05 05:18:31;;;;;;;8.40;5.83;;;13.70;99.90;;;;;;5057383;28;20932;-84
2022/10/05 05:21:06;;;;;;;7.60;6.20;;;13.70;99.90;;;;;;5063638;28;20531;-85
2022/10/05 05:23:41;;;;;;;8.83;5.73;;;13.70;99.90;;;;;;5051825;28;20450;-84
2022/10/05 05:26:16;;;;;;;8.53;6.17;;;13.80;99.90;;;;;;5043977;28;20525;-84
2022/10/05 05:28:49;;;;;;;7.00;5.97;;;13.60;99.90;;;;;;5063446;28;20545;-84
2022/10/05 05:31:24;;;;;;;8.80;6.00;;;13.70;99.90;;;;;;5063129;28;20504;-85
2022/10/05 05:33:59;;;;;;;7.13;6.43;;;13.70;99.90;;;;;;5064315;28;20490;-85
2022/10/05 05:36:47;;;;;;;5.90;5.20;;;13.80;99.90;;;;;;5064408;28;20462;-85
2022/10/05 05:39:25;;;;;;;9.93;5.60;;;13.80;99.90;;;;;;5064563;28;21032;-84
2022/10/05 05:42:07;;;;;;;10.00;6.33;;;13.80;99.90;;;;;;5063732;28;20548;-85
2022/10/05 05:44:38;;;;;;;10.00;6.30;;;13.80;99.90;;;;;;5063951;28;20454;-84
2022/10/05 05:47:18;;;;;;;6.30;5.07;;;13.80;99.90;;;;;;5064741;28;20462;-84
2022/10/05 05:49:59;;;;;;;7.70;5.50;;;13.90;99.90;;;;;;5063341;28;20453;-85
2022/10/05 05:52:31;;;;;;;10.60;6.10;;;13.90;99.90;;;;;;5059668;28;20438;-85
2022/10/05 05:55:06;;;;;;;8.37;5.53;;;13.90;99.90;;;;;;5059851;28;20545;-84
2022/10/05 05:57:38;;;;;;;7.93;5.83;;;13.90;99.90;;;;;;5059623;28;20493;-85
2022/10/05 06:00:08;;;;;;;6.97;5.10;;;13.90;99.90;;;;;;5059177;28;20444;-84
2022/10/05 06:02:40;;;;;;;7.90;5.30;;;14.00;99.90;;;;;;5059952;28;20451;-86
2022/10/05 06:05:24;;;;;;;8.13;5.43;;;14.00;99.90;;;;;;5060675;28;20527;-83
2022/10/05 06:07:52;;;;;;;9.80;5.97;;;14.00;99.90;;;;;;5061430;28;20450;-84
2022/10/05 06:10:28;;;;;;;7.30;4.80;;;14.10;99.90;;;;;;5063538;28;20487;-84
2022/10/05 06:12:58;;;;;;;7.00;4.50;;;14.10;99.90;;;;;;5063008;28;20444;-84
2022/10/05 06:15:33;;;;;;;7.10;4.70;;;14.00;99.90;;;;;;5062801;28;20438;-85
2022/10/05 06:18:06;;;;;;;7.60;5.53;;;14.10;99.90;;;;;;5063157;28;20900;-82
2022/10/05 06:20:39;;;;;;;5.77;4.53;;;14.10;99.90;;;;;;5062325;28;20470;-84
2022/10/05 06:23:14;;;;;;;6.27;4.47;;;14.10;99.90;;;;;;5063181;28;20862;-83
2022/10/05 06:25:55;;;;;;;9.33;4.80;;;14.10;99.90;;;;;;5061572;28;20462;-84
2022/10/05 06:28:26;;;;;;;7.57;4.77;;;14.20;99.90;;;;;;5062306;28;20515;-84
2022/10/05 06:31:07;;;;;;;5.83;4.50;;;14.30;99.90;;;;;;5062766;28;20478;-85
2022/10/05 06:33:46;;;;;;;7.73;4.90;;;14.30;99.90;;;;;;5062464;28;20475;-85
2022/10/05 06:36:25;;;;;;;5.00;4.50;;;14.30;99.90;;;;;;5062635;28;20457;-86
2022/10/05 06:39:04;;;;;;;5.00;3.67;;;14.40;99.90;;;;;;5063207;28;20463;-86
2022/10/05 06:41:46;;;;;;;5.60;4.70;;;14.50;99.90;;;;;;5063212;28;21105;-85
2022/10/05 06:44:16;;;;;;;5.73;4.13;;;14.50;99.90;;;;;;5062773;28;20535;-86
2022/10/05 06:46:51;;;;;;;6.27;4.63;;;14.50;99.90;;;;;;5063088;28;20453;-84
2022/10/05 06:49:21;;;;;;;6.50;4.00;;;14.60;99.90;;;;;;5062021;28;20461;-85
2022/10/05 06:51:55;;;;;;;5.10;4.33;;;14.60;99.90;;;;;;5063054;28;20508;-85
2022/10/05 06:54:38;;;;;;;5.07;4.57;;;14.70;99.90;;;;;;5064699;28;20560;-85
2022/10/05 06:57:15;;;;;;;5.67;3.83;;;14.70;99.90;;;;;;5065094;28;20539;-86
2022/10/05 06:59:49;;;;;;;7.97;4.13;;;14.80;99.90;;;;;;5065073;28;20447;-86
2022/10/05 07:02:23;;;;;;;7.23;4.37;;;14.70;99.90;;;;;;5065838;28;20504;-85
2022/10/05 07:05:16;;;;;;;7.47;4.40;;;14.70;99.90;;;;;;5064975;28;21075;-86
2022/10/05 07:07:51;;;;;;;4.23;3.33;;;14.80;99.90;;;;;;5063580;28;20473;-85
2022/10/05 07:10:30;;;;;;;5.77;4.00;;;14.80;99.90;;;;;;5060720;28;20501;-85
2022/10/05 07:13:10;;;;;;;5.80;3.60;;;14.80;99.90;;;;;;5062692;28;20451;-85
2022/10/05 07:15:44;;;;;;;7.33;3.60;;;14.80;99.90;;;;;;5062742;28;20480;-85
2022/10/05 07:18:44;;;;;;;7.77;3.70;;;14.90;99.90;;;;;;5062767;28;20472;-84
2022/10/05 07:21:19;;;;;;;9.57;4.03;;;15.00;99.90;;;;;;5060709;28;20511;-85
2022/10/05 07:23:55;;;;;;;6.40;3.13;;;15.10;99.90;;;;;;5063721;28;20459;-85
2022/10/05 07:26:31;;;;;;;4.97;3.67;;;15.00;99.90;;;;;;5063650;28;20462;-84
2022/10/05 07:29:18;;;;;;;4.23;3.53;;;15.10;99.90;;;;;;5059231;28;20950;-84
2022/10/05 07:31:52;;;;;;;6.70;4.20;;;15.20;99.90;;;;;;5060833;28;20969;-82
2022/10/05 07:34:30;;;;;;;5.63;3.73;;;15.10;99.90;;;;;;5060679;28;20462;-84
2022/10/05 07:39:58;;;;;;;6.63;3.47;;;15.00;99.90;;;;;;5060059;28;20444;-83
2022/10/05 07:42:32;;;;;;;4.57;3.13;;;15.10;99.90;;;;;;5061177;28;20480;-83
2022/10/05 07:45:13;;;;;;;4.23;3.20;;;15.20;99.90;;;;;;5061423;28;20473;-84
2022/10/05 07:47:46;;;;;;;4.00;3.10;;;15.30;99.90;;;;;;5061183;28;20514;-83
2022/10/05 07:50:19;;;;;;;5.13;3.60;;;15.30;99.90;;;;;;5060919;28;20478;-84
2022/10/05 07:52:53;;;;;;;5.13;3.30;;;15.30;99.90;;;;;;5060636;28;20494;-83
2022/10/05 07:55:24;;;;;;;3.80;2.97;;;15.30;99.90;;;;;;5060683;28;20458;-83
2022/10/05 07:57:58;;;;;;;5.50;3.47;;;15.40;99.90;;;;;;5060396;28;20459;-83
2022/10/05 08:00:39;;;;;;;3.83;3.40;;;15.30;99.90;;;;;;5060733;28;20923;-82
2022/10/05 08:03:11;;;;;;;5.17;3.13;;;15.30;99.90;;;;;;5059160;28;21093;-81
2022/10/05 08:05:42;;;;;;;6.20;3.80;;;15.30;99.90;;;;;;5056415;28;20466;-83
2022/10/05 08:08:20;;;;;;;5.93;3.90;;;15.20;99.90;;;;;;5059088;28;20463;-84
2022/10/05 08:10:55;;;;;;;8.00;3.63;;;15.30;99.90;;;;;;5060143;28;20921;-84
2022/10/05 08:13:29;;;;;;;7.60;3.60;;;15.30;99.90;;;;;;5059722;28;20499;-83
2022/10/05 08:16:02;;;;;;;5.40;3.70;;;15.30;99.90;;;;;;5055043;28;20464;-84
2022/10/05 08:18:48;;;;;;;5.33;4.20;;;15.30;99.90;;;;;;5058501;28;20465;-83
2022/10/05 08:21:19;;;;;;;7.30;3.57;;;15.30;99.90;;;;;;5058466;28;20532;-84
2022/10/05 08:23:50;;;;;;;5.17;3.67;;;15.30;99.90;;;;;;5059455;28;20869;-84
2022/10/05 08:26:24;;;;;;;4.10;3.40;;;15.30;99.90;;;;;;5054704;28;20457;-82
2022/10/05 08:29:00;;;;;;;4.57;2.93;;;15.40;99.90;;;;;;5059024;28;20827;-81
2022/10/05 08:31:33;;;;;;;3.37;2.50;;;15.50;99.90;;;;;;5058568;28;20587;-84
2022/10/05 08:34:10;;;;;;;4.00;2.87;;;15.60;99.90;;;;;;5058235;28;20505;-84
2022/10/05 08:36:54;;;;;;;6.07;3.13;;;15.50;99.90;;;;;;5059692;28;20441;-83
2022/10/05 08:39:24;;;;;;;4.23;2.40;;;15.50;99.90;;;;;;5059107;28;20458;-84
2022/10/05 08:42:09;;;;;;;5.07;3.10;;;15.60;99.90;;;;;;5057714;28;20575;-83
2022/10/05 08:45:09;;;;;;;4.80;2.93;;;15.70;99.90;;;;;;5069595;22;20498;-87
2022/10/05 08:48:00;;;;;;;5.10;2.40;;;15.70;99.90;;;;;;5061153;28;20490;-86
2022/10/05 08:50:42;;;;;;;5.00;3.03;;;15.80;99.90;;;;;;5079810;28;20542;-86
2022/10/05 08:53:21;;;;;;;6.07;2.83;;;15.80;99.90;;;;;;5081001;28;20441;-87
2022/10/05 08:56:02;;;;;;;4.20;2.43;;;15.80;99.90;;;;;;5081751;28;20462;-87
2022/10/05 08:59:04;;;;;;;4.13;3.00;;;15.90;99.90;;;;;;5082549;28;20444;-86
2022/10/05 09:01:44;;;;;;;3.70;2.77;;;15.90;99.90;;;;;;5083417;28;20523;-86
2022/10/05 09:04:30;;;;;;;5.10;3.30;;;16.00;99.90;;;;;;5079363;28;20449;-87
2022/10/05 09:07:10;;;;;;;3.50;2.63;;;16.00;99.90;;;;;;5080507;28;20453;-87
2022/10/05 09:10:03;;;;;;;7.20;2.70;;;15.90;99.90;;;;;;5082839;28;20465;-85
2022/10/05 09:12:59;;;;;;;5.10;3.03;;;16.10;99.90;;;;;;5083828;28;20491;-85
2022/10/05 09:15:45;;;;;;;4.67;2.83;;;16.10;99.90;;;;;;5081478;28;21028;-85
2022/10/05 09:18:53;;;;;;;4.27;2.43;;;16.20;99.90;;;;;;5072978;28;21002;-84
2022/10/05 09:21:36;;;;;;;3.10;2.40;;;16.20;99.90;;;;;;5035293;28;20473;-86
2022/10/05 09:24:17;;;;;;;5.07;2.73;;;16.30;99.90;;;;;;5064176;28;20450;-82
2022/10/05 09:26:52;;;;;;;4.60;3.00;;;16.20;99.90;;;;;;5074099;28;20470;-84
2022/10/05 09:29:54;;;;;;;6.13;3.40;;;16.30;99.90;;;;;;5073113;28;20446;-84
2022/10/05 09:32:53;;;;;;;3.50;2.60;;;16.30;99.90;;;;;;5073282;28;20515;-84
2022/10/05 09:35:38;;;;;;;3.80;2.47;;;16.50;99.90;;;;;;5068257;28;20561;-84
2022/10/05 09:38:24;;;;;;;3.53;3.20;;;16.50;99.90;;;;;;5066708;28;20551;-84
2022/10/05 09:41:27;;;;;;;5.63;3.10;;;16.50;99.90;;;;;;5076240;28;20478;-83
2022/10/05 09:44:36;;;;;;;6.20;2.30;;;16.50;99.90;;;;;;5087438;28;21033;-84
2022/10/05 09:47:23;;;;;;;5.93;3.13;;;16.50;99.90;;;;;;5087471;28;20446;-85
2022/10/05 09:50:05;;;;;;;4.27;2.37;;;16.60;99.90;;;;;;5090012;28;20544;-83
2022/10/05 09:53:23;;;;;;;5.23;2.13;;;16.70;99.90;;;;;;5088338;28;20558;-84
2022/10/05 09:56:20;;;;;;;3.67;2.40;;;16.80;99.90;;;;;;5043514;28;20534;-83
2022/10/05 09:59:16;;;;;;;3.20;2.73;;;16.90;99.90;;;;;;5086803;28;20529;-85
2022/10/05 10:02:13;;;;;;;5.03;4.07;;;16.90;99.90;;;;;;5082587;28;20523;-85
2022/10/05 10:05:15;;;;;;;5.73;3.03;;;16.90;99.90;;;;;;5087126;28;20995;-85
2022/10/05 10:07:52;;;;;;;3.27;2.50;;;17.00;99.90;;;;;;5086111;28;20457;-88
2022/10/05 10:10:53;;;;;;;3.63;2.77;;;17.00;99.90;;;;;;5084211;28;20458;-85
2022/10/05 10:13:52;;;;;;;4.40;2.70;;;16.90;99.90;;;;;;5094475;28;20504;-85
2022/10/05 10:16:32;;;;;;;5.40;3.07;;;16.90;99.90;;;;;;5095303;28;20454;-87
2022/10/05 10:19:13;;;;;;;5.23;2.57;;;17.00;99.90;;;;;;5089493;28;20457;-86
2022/10/05 10:22:15;;;;;;;7.60;2.77;;;17.00;99.90;;;;;;5082346;28;20451;-87
2022/10/05 10:24:55;;;;;;;4.97;2.70;;;17.00;99.90;;;;;;5083625;28;20477;-85
2022/10/05 10:27:40;;;;;;;2.93;2.43;;;17.10;99.90;;;;;;5084999;28;20525;-86
2022/10/05 10:30:46;;;;;;;4.17;2.70;;;17.20;99.90;;;;;;5085432;28;20537;-84
2022/10/05 10:33:22;;;;;;;3.20;2.30;;;17.20;99.90;;;;;;5077119;28;20478;-85
2022/10/05 10:35:58;;;;;;;4.03;2.53;;;17.30;99.90;;;;;;5085105;28;20836;-86
2022/10/05 10:38:53;;;;;;;3.63;1.93;;;17.30;99.90;;;;;;5084136;28;20455;-85
2022/10/05 10:41:57;;;;;;;2.80;2.07;;;17.30;99.90;;;;;;5086488;28;20529;-86
2022/10/05 10:45:05;;;;;;;4.30;2.57;;;17.40;99.90;;;;;;5084737;28;20503;-85
2022/10/05 10:48:03;;;;;;;3.10;2.23;;;17.40;99.90;;;;;;5083249;28;20553;-86
2022/10/05 10:51:03;;;;;;;3.33;2.07;;;17.40;99.90;;;;;;5082101;28;20458;-86
2022/10/05 10:54:08;;;;;;;2.87;2.30;;;17.50;99.90;;;;;;5081306;28;20484;-85
2022/10/05 10:56:51;;;;;;;5.47;3.00;;;17.50;99.90;;;;;;5081233;28;20449;-86
2022/10/05 10:59:55;;;;;;;3.27;2.10;;;17.50;99.90;;;;;;5081150;28;20451;-86
2022/10/05 11:02:41;;;;;;;6.90;2.30;;;17.40;99.90;;;;;;5083911;28;20514;-87
2022/10/05 11:05:35;;;;;;;4.30;2.70;;;17.50;99.90;;;;;;5063686;28;20470;-85
2022/10/05 11:08:28;;;;;;;7.80;2.80;;;17.50;99.90;;;;;;5080551;28;20457;-86
2022/10/05 11:11:14;;;;;;;6.97;3.60;;;17.40;99.90;;;;;;5070828;28;20454;-85
2022/10/05 11:14:05;;;;;;;3.10;2.03;;;17.60;99.90;;;;;;5084257;28;20480;-84
2022/10/05 11:17:12;;;;;;;8.50;2.40;;;17.90;99.90;;;;;;5084347;28;20449;-86
2022/10/05 11:19:55;;;;;;;2.40;1.73;;;18.10;99.90;;;;;;5077938;28;20458;-86
2022/10/05 11:22:45;;;;;;;4.53;2.33;;;18.10;99.90;;;;;;5083150;28;20454;-86
2022/10/05 11:25:36;;;;;;;6.43;2.30;;;18.20;99.90;;;;;;5082793;28;20478;-85
2022/10/05 11:28:26;;;;;;;4.40;2.20;;;18.10;99.90;;;;;;5069965;28;20453;-88
2022/10/05 11:31:41;;;;;;;3.43;2.10;;;18.30;99.90;;;;;;5082316;28;20446;-85
2022/10/05 11:34:48;;;;;;;4.90;2.40;;;18.50;99.90;;;;;;5086278;28;20454;-86
2022/10/05 11:37:35;;;;;;;2.80;1.90;;;19.00;99.90;;;;;;5000894;28;20495;-87
2022/10/05 11:40:32;;;;;;;3.37;1.77;;;19.40;99.90;;;;;;5079924;28;20458;-85
2022/10/05 11:43:38;;;;;;;5.43;2.47;;;19.60;99.90;;;;;;5084572;28;20841;-85
2022/10/05 11:46:15;;;;;;;3.47;1.70;;;19.70;99.90;;;;;;5046965;28;20484;-83
2022/10/05 11:49:05;;;;;;;2.50;1.90;;;19.70;99.90;;;;;;5086041;28;20464;-82
2022/10/05 11:51:50;;;;;;;3.50;2.40;;;19.70;99.90;;;;;;5085124;28;20954;-84
2022/10/05 11:54:59;;;;;;;3.30;2.03;;;20.10;99.90;;;;;;5083594;28;20446;-87
2022/10/05 11:57:36;;;;;;;5.50;1.90;;;20.90;99.90;;;;;;5012767;28;20454;-86
2022/10/05 12:00:13;;;;;;;3.53;2.10;;;21.90;99.90;;;;;;5061381;28;20539;-85
2022/10/05 12:02:54;;;;;;;3.60;2.20;;;22.40;99.90;;;;;;5058201;28;20950;-87
2022/10/05 12:05:24;;;;;;;3.50;2.00;;;23.00;99.90;;;;;;5059553;28;20471;-87
2022/10/05 12:08:21;;;;;;;2.90;1.60;;;23.50;99.90;;;;;;5059334;28;20485;-85
2022/10/05 12:10:59;;;;;;;3.10;2.13;;;23.60;99.90;;;;;;5058102;28;20486;-85
2022/10/05 12:13:35;;;;;;;7.57;2.10;;;23.90;99.90;;;;;;5058236;28;20483;-83
2022/10/05 12:16:07;;;;;;;4.77;1.87;;;24.00;99.90;;;;;;5063942;28;20486;-85
2022/10/05 12:18:48;;;;;;;3.63;1.87;;;24.40;99.90;;;;;;5064232;28;20448;-85
2022/10/05 12:21:23;;;;;;;4.40;1.97;;;24.40;99.90;;;;;;5061208;28;20474;-88
2022/10/05 12:23:55;;;;;;;6.73;1.80;;;24.50;99.90;;;;;;5062064;28;20451;-86
2022/10/05 12:26:26;;;;;;;3.43;2.17;;;24.90;99.90;;;;;;5060494;28;20559;-85
2022/10/05 12:29:01;;;;;;;3.90;1.87;;;25.30;99.90;;;;;;5062204;28;20442;-85
2022/10/05 12:31:37;;;;;;;3.17;1.93;;;25.00;99.90;;;;;;5062392;28;20544;-85
2022/10/05 12:34:14;;;;;;;3.83;1.70;;;25.30;99.90;;;;;;5058834;28;20483;-86
2022/10/05 12:36:47;;;;;;;3.83;1.50;;;25.40;99.90;;;;;;5062216;28;20888;-85
2022/10/05 12:39:22;;;;;;;3.73;2.30;;;25.50;99.90;;;;;;5063741;28;20534;-86
2022/10/05 12:41:56;;;;;;;3.10;1.50;;;25.80;99.90;;;;;;5063496;28;20462;-85
2022/10/05 12:44:41;;;;;;;3.97;1.70;;;26.10;99.90;;;;;;5062414;28;20491;-86
2022/10/05 12:47:19;;;;;;;3.80;1.80;;;26.40;99.90;;;;;;5061399;28;20451;-86
2022/10/05 12:49:59;;;;;;;5.33;2.10;;;26.40;99.90;;;;;;5060355;28;20462;-86
2022/10/05 12:52:42;;;;;;;2.20;1.40;;;26.40;99.90;;;;;;5062552;28;20550;-87
2022/10/05 12:55:15;;;;;;;2.83;1.50;;;26.90;99.90;;;;;;5060733;28;21009;-86
2022/10/05 12:57:53;;;;;;;3.50;1.60;;;26.90;99.90;;;;;;5061261;28;20440;-86
2022/10/05 13:00:24;;;;;;;3.47;1.90;;;27.10;99.90;;;;;;5073310;28;20484;-86
2022/10/05 13:02:59;;;;;;;4.07;1.87;;;26.80;99.90;;;;;;5063286;28;20463;-85
2022/10/05 13:05:31;;;;;;;4.90;1.73;;;26.60;99.90;;;;;;5058612;28;20474;-86
2022/10/05 13:08:07;;;;;;;2.40;1.70;;;27.00;99.90;;;;;;5058933;28;20837;-84
2022/10/05 13:10:38;;;;;;;3.00;1.53;;;26.60;99.90;;;;;;5057105;28;20447;-86
2022/10/05 13:13:19;;;;;;;3.70;1.40;;;26.60;99.90;;;;;;5068093;28;20531;-85
2022/10/05 13:15:53;;;;;;;3.73;1.53;;;26.40;99.90;;;;;;5067667;28;20470;-85
2022/10/05 13:18:28;;;;;;;2.70;1.50;;;26.60;99.90;;;;;;5075867;28;20462;-85
2022/10/05 13:21:03;;;;;;;3.17;1.60;;;26.70;99.90;;;;;;5077760;28;20453;-85
2022/10/05 13:23:46;;;;;;;2.67;1.50;;;27.10;99.90;;;;;;5077573;28;20867;-86
2022/10/05 13:26:17;;;;;;;3.80;2.07;;;27.00;99.90;;;;;;5073435;28;20539;-84
2022/10/05 13:28:52;;;;;;;2.43;1.40;;;27.50;99.90;;;;;;5081696;28;20455;-82
2022/10/05 13:31:24;;;;;;;3.70;1.60;;;27.60;99.90;;;;;;5060551;28;20447;-81
2022/10/05 13:34:05;;;;;;;4.33;1.60;;;27.50;99.90;;;;;;5061836;28;20490;-82
2022/10/05 13:36:43;;;;;;;2.50;1.40;;;27.70;99.90;;;;;;5059878;28;20479;-82
2022/10/05 13:39:23;;;;;;;3.40;1.40;;;27.70;99.90;;;;;;5067566;28;20451;-84
2022/10/05 13:41:55;;;;;;;2.10;1.50;;;27.30;99.90;;;;;;5086897;28;20450;-85
2022/10/05 13:44:28;;;;;;;2.50;1.50;;;27.40;99.90;;;;;;5086365;28;20517;-85
2022/10/05 13:47:01;;;;;;;4.33;1.70;;;27.60;99.90;;;;;;5086781;28;20457;-84
2022/10/05 13:49:36;;;;;;;2.97;1.20;;;27.80;99.90;;;;;;5088040;28;20534;-84
2022/10/05 13:52:24;;;;;;;5.20;1.50;;;27.90;99.90;;;;;;5089009;28;20446;-86